sensor_id;sensor_type;location;lat;lon;timestamp;P1;durP1;ratioP1;P2;durP2;ratioP2
11986;SDS011;6053;51.382;6.768;2022-08-01T00:01:31;1.42;;;1.33;;
11986;SDS011;6053;51.382;6.768;2022-08-01T00:03:59;1.23;;;1.10;;
11986;SDS011;6053;51.382;6.768;2022-08-01T00:06:28;1.40;;;1.30;;
11986;SDS011;6053;51.382;6.768;2022-08-01T00:08:56;1.73;;;1.40;;
11986;SDS011;6053;51.382;6.768;2022-08-01T00:11:25;2.47;;;1.30;;
11986;SDS011;6053;51.382;6.768;2022-08-01T00:13:53;1.30;;;1.20;;
11986;SDS011;6053;51.382;6.768;2022-08-01T00:16:21;2.53;;;1.20;;
11986;SDS011;6053;51.382;6.768;2022-08-01T00:18:51;0.80;;;0.70;;
11986;SDS011;6053;51.382;6.768;2022-08-01T00:21:20;1.23;;;1.13;;
11986;SDS011;6053;51.382;6.768;2022-08-01T00:23:49;1.10;;;1.00;;
11986;SDS011;6053;51.382;6.768;2022-08-01T00:26:17;1.17;;;1.10;;
11986;SDS011;6053;51.382;6.768;2022-08-01T00:28:46;1.30;;;1.20;;
11986;SDS011;6053;51.382;6.768;2022-08-01T00:31:14;1.20;;;1.10;;
11986;SDS011;6053;51.382;6.768;2022-08-01T00:33:42;1.30;;;1.00;;
11986;SDS011;6053;51.382;6.768;2022-08-01T00:36:12;1.25;;;1.00;;
11986;SDS011;6053;51.382;6.768;2022-08-01T00:38:40;1.27;;;1.05;;
11986;SDS011;6053;51.382;6.768;2022-08-01T00:41:09;1.05;;;0.88;;
11986;SDS011;6053;51.382;6.768;2022-08-01T00:43:37;2.17;;;1.47;;
11986;SDS011;6053;51.382;6.768;2022-08-01T00:46:05;0.67;;;0.67;;
11986;SDS011;6053;51.382;6.768;2022-08-01T00:48:34;1.48;;;1.17;;
11986;SDS011;6053;51.382;6.768;2022-08-01T00:51:03;0.82;;;0.68;;
11986;SDS011;6053;51.382;6.768;2022-08-01T00:53:33;1.17;;;1.02;;
11986;SDS011;6053;51.382;6.768;2022-08-01T00:56:17;0.60;;;0.60;;
11986;SDS011;6053;51.382;6.768;2022-08-01T00:58:46;1.77;;;1.05;;
11986;SDS011;6053;51.382;6.768;2022-08-01T01:01:15;1.50;;;1.10;;
11986;SDS011;6053;51.382;6.768;2022-08-01T01:03:44;0.90;;;0.80;;
11986;SDS011;6053;51.382;6.768;2022-08-01T01:06:35;1.50;;;0.95;;
11986;SDS011;6053;51.382;6.768;2022-08-01T01:09:15;1.67;;;1.20;;
11986;SDS011;6053;51.382;6.768;2022-08-01T01:12:04;0.65;;;0.63;;
11986;SDS011;6053;51.382;6.768;2022-08-01T01:14:49;0.65;;;0.65;;
11986;SDS011;6053;51.382;6.768;2022-08-01T01:17:26;2.63;;;1.30;;
11986;SDS011;6053;51.382;6.768;2022-08-01T01:20:17;2.17;;;1.20;;
11986;SDS011;6053;51.382;6.768;2022-08-01T01:22:56;1.83;;;1.10;;
11986;SDS011;6053;51.382;6.768;2022-08-01T01:25:53;2.23;;;1.70;;
11986;SDS011;6053;51.382;6.768;2022-08-01T01:28:40;1.60;;;1.50;;
11986;SDS011;6053;51.382;6.768;2022-08-01T01:31:42;2.38;;;1.80;;
11986;SDS011;6053;51.382;6.768;2022-08-01T01:34:15;1.73;;;1.50;;
11986;SDS011;6053;51.382;6.768;2022-08-01T01:36:47;1.85;;;1.33;;
11986;SDS011;6053;51.382;6.768;2022-08-01T01:39:17;2.88;;;1.75;;
11986;SDS011;6053;51.382;6.768;2022-08-01T01:41:47;3.40;;;1.30;;
11986;SDS011;6053;51.382;6.768;2022-08-01T01:44:20;2.50;;;1.27;;
11986;SDS011;6053;51.382;6.768;2022-08-01T01:46:48;1.58;;;1.20;;
11986;SDS011;6053;51.382;6.768;2022-08-01T01:49:19;2.00;;;1.40;;
11986;SDS011;6053;51.382;6.768;2022-08-01T01:51:52;2.97;;;1.70;;
11986;SDS011;6053;51.382;6.768;2022-08-01T01:54:30;1.17;;;1.05;;
11986;SDS011;6053;51.382;6.768;2022-08-01T01:57:03;2.33;;;1.60;;
11986;SDS011;6053;51.382;6.768;2022-08-01T01:59:36;2.30;;;1.30;;
11986;SDS011;6053;51.382;6.768;2022-08-01T02:02:06;1.48;;;1.05;;
11986;SDS011;6053;51.382;6.768;2022-08-01T02:04:37;2.83;;;1.60;;
11986;SDS011;6053;51.382;6.768;2022-08-01T02:07:10;2.78;;;1.42;;
11986;SDS011;6053;51.382;6.768;2022-08-01T02:09:41;2.63;;;1.60;;
11986;SDS011;6053;51.382;6.768;2022-08-01T02:12:12;1.42;;;1.17;;
11986;SDS011;6053;51.382;6.768;2022-08-01T02:14:43;0.75;;;0.60;;
11986;SDS011;6053;51.382;6.768;2022-08-01T02:17:15;2.97;;;1.50;;
11986;SDS011;6053;51.382;6.768;2022-08-01T02:19:47;1.58;;;1.42;;
11986;SDS011;6053;51.382;6.768;2022-08-01T02:22:16;1.50;;;1.20;;
11986;SDS011;6053;51.382;6.768;2022-08-01T02:24:54;1.48;;;1.35;;
11986;SDS011;6053;51.382;6.768;2022-08-01T02:27:30;1.15;;;1.00;;
11986;SDS011;6053;51.382;6.768;2022-08-01T02:30:14;1.63;;;0.90;;
11986;SDS011;6053;51.382;6.768;2022-08-01T02:32:44;3.67;;;2.15;;
11986;SDS011;6053;51.382;6.768;2022-08-01T02:35:18;2.17;;;1.97;;
11986;SDS011;6053;51.382;6.768;2022-08-01T02:37:50;2.30;;;1.13;;
11986;SDS011;6053;51.382;6.768;2022-08-01T02:40:20;3.65;;;2.08;;
11986;SDS011;6053;51.382;6.768;2022-08-01T02:42:49;2.43;;;1.10;;
11986;SDS011;6053;51.382;6.768;2022-08-01T02:45:22;1.90;;;1.60;;
11986;SDS011;6053;51.382;6.768;2022-08-01T02:47:55;1.45;;;1.17;;
11986;SDS011;6053;51.382;6.768;2022-08-01T02:50:29;4.18;;;2.10;;
11986;SDS011;6053;51.382;6.768;2022-08-01T02:52:59;2.38;;;1.45;;
11986;SDS011;6053;51.382;6.768;2022-08-01T02:55:29;3.63;;;2.25;;
11986;SDS011;6053;51.382;6.768;2022-08-01T02:58:01;1.73;;;1.63;;
11986;SDS011;6053;51.382;6.768;2022-08-01T03:00:32;5.00;;;2.10;;
11986;SDS011;6053;51.382;6.768;2022-08-01T03:03:02;3.43;;;1.40;;
11986;SDS011;6053;51.382;6.768;2022-08-01T03:05:34;1.73;;;1.40;;
11986;SDS011;6053;51.382;6.768;2022-08-01T03:08:06;1.92;;;1.60;;
11986;SDS011;6053;51.382;6.768;2022-08-01T03:10:40;3.05;;;1.20;;
11986;SDS011;6053;51.382;6.768;2022-08-01T03:13:13;1.30;;;1.23;;
11986;SDS011;6053;51.382;6.768;2022-08-01T03:15:46;0.75;;;0.70;;
11986;SDS011;6053;51.382;6.768;2022-08-01T03:18:16;2.45;;;1.63;;
11986;SDS011;6053;51.382;6.768;2022-08-01T03:20:45;2.92;;;1.42;;
11986;SDS011;6053;51.382;6.768;2022-08-01T03:23:14;2.08;;;1.48;;
11986;SDS011;6053;51.382;6.768;2022-08-01T03:25:44;3.60;;;2.58;;
11986;SDS011;6053;51.382;6.768;2022-08-01T03:28:14;2.08;;;1.65;;
11986;SDS011;6053;51.382;6.768;2022-08-01T03:30:44;3.90;;;1.73;;
11986;SDS011;6053;51.382;6.768;2022-08-01T03:33:16;1.70;;;1.25;;
11986;SDS011;6053;51.382;6.768;2022-08-01T03:35:45;1.48;;;1.27;;
11986;SDS011;6053;51.382;6.768;2022-08-01T03:38:17;2.60;;;2.00;;
11986;SDS011;6053;51.382;6.768;2022-08-01T03:40:49;4.25;;;2.70;;
11986;SDS011;6053;51.382;6.768;2022-08-01T03:43:26;3.42;;;2.00;;
11986;SDS011;6053;51.382;6.768;2022-08-01T03:46:01;0.77;;;0.77;;
11986;SDS011;6053;51.382;6.768;2022-08-01T03:48:35;1.40;;;1.30;;
11986;SDS011;6053;51.382;6.768;2022-08-01T03:51:08;3.20;;;2.05;;
11986;SDS011;6053;51.382;6.768;2022-08-01T03:53:38;1.77;;;1.50;;
11986;SDS011;6053;51.382;6.768;2022-08-01T03:56:09;1.35;;;1.17;;
11986;SDS011;6053;51.382;6.768;2022-08-01T03:58:40;1.48;;;1.38;;
11986;SDS011;6053;51.382;6.768;2022-08-01T04:01:17;0.80;;;0.80;;
11986;SDS011;6053;51.382;6.768;2022-08-01T04:03:46;3.65;;;1.88;;
11986;SDS011;6053;51.382;6.768;2022-08-01T04:06:15;1.90;;;1.60;;
11986;SDS011;6053;51.382;6.768;2022-08-01T04:08:44;0.95;;;0.80;;
11986;SDS011;6053;51.382;6.768;2022-08-01T04:11:22;2.30;;;1.50;;
11986;SDS011;6053;51.382;6.768;2022-08-01T04:13:53;5.00;;;2.72;;
11986;SDS011;6053;51.382;6.768;2022-08-01T04:16:25;0.50;;;0.50;;
11986;SDS011;6053;51.382;6.768;2022-08-01T04:18:53;0.50;;;0.50;;
11986;SDS011;6053;51.382;6.768;2022-08-01T04:21:23;2.25;;;1.70;;
11986;SDS011;6053;51.382;6.768;2022-08-01T04:23:56;0.50;;;0.50;;
11986;SDS011;6053;51.382;6.768;2022-08-01T04:26:31;0.97;;;0.97;;
11986;SDS011;6053;51.382;6.768;2022-08-01T04:29:02;1.83;;;1.50;;
11986;SDS011;6053;51.382;6.768;2022-08-01T04:31:35;0.95;;;0.93;;
11986;SDS011;6053;51.382;6.768;2022-08-01T04:34:06;1.85;;;1.10;;
11986;SDS011;6053;51.382;6.768;2022-08-01T04:36:36;5.13;;;2.73;;
11986;SDS011;6053;51.382;6.768;2022-08-01T04:39:08;0.90;;;0.90;;
11986;SDS011;6053;51.382;6.768;2022-08-01T04:41:39;0.70;;;0.70;;
11986;SDS011;6053;51.382;6.768;2022-08-01T04:44:08;1.70;;;1.15;;
11986;SDS011;6053;51.382;6.768;2022-08-01T04:46:38;1.92;;;1.83;;
11986;SDS011;6053;51.382;6.768;2022-08-01T04:49:08;1.42;;;1.20;;
11986;SDS011;6053;51.382;6.768;2022-08-01T04:51:48;5.32;;;2.17;;
11986;SDS011;6053;51.382;6.768;2022-08-01T04:54:18;2.17;;;1.95;;
11986;SDS011;6053;51.382;6.768;2022-08-01T04:56:47;3.03;;;2.47;;
11986;SDS011;6053;51.382;6.768;2022-08-01T04:59:16;0.60;;;0.60;;
11986;SDS011;6053;51.382;6.768;2022-08-01T05:02:04;0.50;;;0.50;;
11986;SDS011;6053;51.382;6.768;2022-08-01T05:04:33;0.60;;;0.60;;
11986;SDS011;6053;51.382;6.768;2022-08-01T05:07:01;1.17;;;1.05;;
11986;SDS011;6053;51.382;6.768;2022-08-01T05:09:30;0.60;;;0.60;;
11986;SDS011;6053;51.382;6.768;2022-08-01T05:11:59;2.38;;;1.85;;
11986;SDS011;6053;51.382;6.768;2022-08-01T05:14:29;1.70;;;1.60;;
11986;SDS011;6053;51.382;6.768;2022-08-01T05:16:59;1.80;;;1.70;;
11986;SDS011;6053;51.382;6.768;2022-08-01T05:19:30;0.77;;;0.77;;
11986;SDS011;6053;51.382;6.768;2022-08-01T05:22:00;1.70;;;1.60;;
11986;SDS011;6053;51.382;6.768;2022-08-01T05:24:31;1.50;;;1.20;;
11986;SDS011;6053;51.382;6.768;2022-08-01T05:27:01;2.83;;;1.60;;
11986;SDS011;6053;51.382;6.768;2022-08-01T05:29:32;1.83;;;1.73;;
11986;SDS011;6053;51.382;6.768;2022-08-01T05:32:01;1.65;;;1.45;;
11986;SDS011;6053;51.382;6.768;2022-08-01T05:34:32;2.55;;;1.95;;
11986;SDS011;6053;51.382;6.768;2022-08-01T05:37:00;2.08;;;1.70;;
11986;SDS011;6053;51.382;6.768;2022-08-01T05:39:29;1.15;;;1.08;;
11986;SDS011;6053;51.382;6.768;2022-08-01T05:41:57;1.00;;;1.00;;
11986;SDS011;6053;51.382;6.768;2022-08-01T05:44:26;1.90;;;1.70;;
11986;SDS011;6053;51.382;6.768;2022-08-01T05:46:54;2.40;;;2.27;;
11986;SDS011;6053;51.382;6.768;2022-08-01T05:49:22;0.75;;;0.75;;
11986;SDS011;6053;51.382;6.768;2022-08-01T05:51:52;1.60;;;1.35;;
11986;SDS011;6053;51.382;6.768;2022-08-01T05:54:21;1.25;;;1.13;;
11986;SDS011;6053;51.382;6.768;2022-08-01T05:56:49;0.98;;;0.90;;
11986;SDS011;6053;51.382;6.768;2022-08-01T05:59:18;1.52;;;1.30;;
11986;SDS011;6053;51.382;6.768;2022-08-01T06:01:47;1.23;;;1.13;;
11986;SDS011;6053;51.382;6.768;2022-08-01T06:04:15;0.80;;;0.80;;
11986;SDS011;6053;51.382;6.768;2022-08-01T06:06:44;1.92;;;1.83;;
11986;SDS011;6053;51.382;6.768;2022-08-01T06:09:13;1.38;;;1.27;;
11986;SDS011;6053;51.382;6.768;2022-08-01T06:11:42;1.40;;;1.30;;
11986;SDS011;6053;51.382;6.768;2022-08-01T06:14:10;1.05;;;0.98;;
11986;SDS011;6053;51.382;6.768;2022-08-01T06:16:38;0.50;;;0.50;;
11986;SDS011;6053;51.382;6.768;2022-08-01T06:19:07;1.30;;;1.00;;
11986;SDS011;6053;51.382;6.768;2022-08-01T06:21:35;0.70;;;0.70;;
11986;SDS011;6053;51.382;6.768;2022-08-01T06:24:04;1.02;;;1.02;;
11986;SDS011;6053;51.382;6.768;2022-08-01T06:26:33;1.00;;;1.00;;
11986;SDS011;6053;51.382;6.768;2022-08-01T06:29:03;2.42;;;1.77;;
11986;SDS011;6053;51.382;6.768;2022-08-01T06:31:31;0.60;;;0.60;;
11986;SDS011;6053;51.382;6.768;2022-08-01T06:34:00;0.52;;;0.52;;
11986;SDS011;6053;51.382;6.768;2022-08-01T06:36:28;1.10;;;1.00;;
11986;SDS011;6053;51.382;6.768;2022-08-01T06:38:56;0.88;;;0.88;;
11986;SDS011;6053;51.382;6.768;2022-08-01T06:41:25;1.80;;;1.20;;
11986;SDS011;6053;51.382;6.768;2022-08-01T06:43:54;0.70;;;0.70;;
11986;SDS011;6053;51.382;6.768;2022-08-01T06:46:23;1.80;;;1.70;;
11986;SDS011;6053;51.382;6.768;2022-08-01T06:48:57;1.23;;;1.13;;
11986;SDS011;6053;51.382;6.768;2022-08-01T06:51:26;1.10;;;1.00;;
11986;SDS011;6053;51.382;6.768;2022-08-01T06:53:54;1.70;;;1.38;;
11986;SDS011;6053;51.382;6.768;2022-08-01T06:56:22;0.70;;;0.70;;
11986;SDS011;6053;51.382;6.768;2022-08-01T06:58:51;0.70;;;0.70;;
11986;SDS011;6053;51.382;6.768;2022-08-01T07:01:23;0.40;;;0.40;;
11986;SDS011;6053;51.382;6.768;2022-08-01T07:03:52;1.00;;;0.83;;
11986;SDS011;6053;51.382;6.768;2022-08-01T07:06:21;0.40;;;0.40;;
11986;SDS011;6053;51.382;6.768;2022-08-01T07:08:50;0.75;;;0.75;;
11986;SDS011;6053;51.382;6.768;2022-08-01T07:11:19;1.02;;;0.95;;
11986;SDS011;6053;51.382;6.768;2022-08-01T07:13:48;0.50;;;0.50;;
11986;SDS011;6053;51.382;6.768;2022-08-01T07:16:17;0.90;;;0.90;;
11986;SDS011;6053;51.382;6.768;2022-08-01T07:18:46;0.50;;;0.50;;
11986;SDS011;6053;51.382;6.768;2022-08-01T07:21:15;0.40;;;0.40;;
11986;SDS011;6053;51.382;6.768;2022-08-01T07:24:03;1.53;;;1.37;;
11986;SDS011;6053;51.382;6.768;2022-08-01T07:26:38;0.77;;;0.77;;
11986;SDS011;6053;51.382;6.768;2022-08-01T07:29:20;1.60;;;1.00;;
11986;SDS011;6053;51.382;6.768;2022-08-01T07:31:50;0.80;;;0.80;;
11986;SDS011;6053;51.382;6.768;2022-08-01T07:34:21;1.13;;;1.05;;
11986;SDS011;6053;51.382;6.768;2022-08-01T07:36:51;0.50;;;0.50;;
11986;SDS011;6053;51.382;6.768;2022-08-01T07:39:20;1.50;;;1.20;;
11986;SDS011;6053;51.382;6.768;2022-08-01T07:41:48;0.55;;;0.55;;
11986;SDS011;6053;51.382;6.768;2022-08-01T07:44:33;0.70;;;0.70;;
11986;SDS011;6053;51.382;6.768;2022-08-01T07:47:02;1.40;;;0.85;;
11986;SDS011;6053;51.382;6.768;2022-08-01T07:49:33;1.25;;;1.15;;
11986;SDS011;6053;51.382;6.768;2022-08-01T07:52:06;1.35;;;0.82;;
11986;SDS011;6053;51.382;6.768;2022-08-01T07:54:35;1.05;;;1.05;;
11986;SDS011;6053;51.382;6.768;2022-08-01T07:57:04;0.70;;;0.70;;
11986;SDS011;6053;51.382;6.768;2022-08-01T07:59:33;0.90;;;0.90;;
11986;SDS011;6053;51.382;6.768;2022-08-01T08:02:02;1.20;;;0.68;;
11986;SDS011;6053;51.382;6.768;2022-08-01T08:04:33;0.68;;;0.68;;
11986;SDS011;6053;51.382;6.768;2022-08-01T08:07:02;0.63;;;0.63;;
11986;SDS011;6053;51.382;6.768;2022-08-01T08:09:31;0.73;;;0.73;;
11986;SDS011;6053;51.382;6.768;2022-08-01T08:12:03;0.82;;;0.82;;
11986;SDS011;6053;51.382;6.768;2022-08-01T08:14:33;1.15;;;1.05;;
11986;SDS011;6053;51.382;6.768;2022-08-01T08:17:02;0.80;;;0.70;;
11986;SDS011;6053;51.382;6.768;2022-08-01T08:19:32;1.15;;;0.75;;
11986;SDS011;6053;51.382;6.768;2022-08-01T08:22:04;1.70;;;0.60;;
11986;SDS011;6053;51.382;6.768;2022-08-01T08:24:34;0.70;;;0.70;;
11986;SDS011;6053;51.382;6.768;2022-08-01T08:27:12;0.88;;;0.88;;
11986;SDS011;6053;51.382;6.768;2022-08-01T08:29:41;1.15;;;1.08;;
11986;SDS011;6053;51.382;6.768;2022-08-01T08:32:10;0.80;;;0.80;;
11986;SDS011;6053;51.382;6.768;2022-08-01T08:34:41;0.90;;;0.90;;
11986;SDS011;6053;51.382;6.768;2022-08-01T08:37:09;0.63;;;0.55;;
11986;SDS011;6053;51.382;6.768;2022-08-01T08:39:39;0.77;;;0.77;;
11986;SDS011;6053;51.382;6.768;2022-08-01T08:42:08;0.70;;;0.70;;
11986;SDS011;6053;51.382;6.768;2022-08-01T08:44:37;2.00;;;0.93;;
11986;SDS011;6053;51.382;6.768;2022-08-01T08:47:10;1.30;;;1.00;;
11986;SDS011;6053;51.382;6.768;2022-08-01T08:49:47;1.13;;;0.90;;
11986;SDS011;6053;51.382;6.768;2022-08-01T08:52:17;0.60;;;0.60;;
11986;SDS011;6053;51.382;6.768;2022-08-01T08:54:48;0.40;;;0.40;;
11986;SDS011;6053;51.382;6.768;2022-08-01T08:57:18;0.70;;;0.70;;
11986;SDS011;6053;51.382;6.768;2022-08-01T08:59:47;0.47;;;0.40;;
11986;SDS011;6053;51.382;6.768;2022-08-01T09:02:18;0.70;;;0.70;;
11986;SDS011;6053;51.382;6.768;2022-08-01T09:04:49;0.50;;;0.50;;
11986;SDS011;6053;51.382;6.768;2022-08-01T09:07:18;0.52;;;0.52;;
11986;SDS011;6053;51.382;6.768;2022-08-01T09:09:49;0.40;;;0.40;;
11986;SDS011;6053;51.382;6.768;2022-08-01T09:12:19;0.68;;;0.60;;
11986;SDS011;6053;51.382;6.768;2022-08-01T09:14:47;1.10;;;1.10;;
11986;SDS011;6053;51.382;6.768;2022-08-01T09:17:19;0.95;;;0.63;;
11986;SDS011;6053;51.382;6.768;2022-08-01T09:19:51;0.60;;;0.60;;
11986;SDS011;6053;51.382;6.768;2022-08-01T09:22:24;0.40;;;0.40;;
11986;SDS011;6053;51.382;6.768;2022-08-01T09:24:56;0.50;;;0.50;;
11986;SDS011;6053;51.382;6.768;2022-08-01T09:27:26;0.70;;;0.70;;
11986;SDS011;6053;51.382;6.768;2022-08-01T09:30:06;0.60;;;0.60;;
11986;SDS011;6053;51.382;6.768;2022-08-01T09:32:37;0.50;;;0.50;;
11986;SDS011;6053;51.382;6.768;2022-08-01T09:35:24;0.60;;;0.60;;
11986;SDS011;6053;51.382;6.768;2022-08-01T09:40:48;0.60;;;0.60;;
11986;SDS011;6053;51.382;6.768;2022-08-01T09:43:19;0.70;;;0.70;;
11986;SDS011;6053;51.382;6.768;2022-08-01T09:45:50;0.82;;;0.82;;
11986;SDS011;6053;51.382;6.768;2022-08-01T09:48:20;0.50;;;0.50;;
11986;SDS011;6053;51.382;6.768;2022-08-01T09:50:56;0.63;;;0.60;;
11986;SDS011;6053;51.382;6.768;2022-08-01T09:53:41;0.60;;;0.60;;
11986;SDS011;6053;51.382;6.768;2022-08-01T09:56:17;1.38;;;1.00;;
11986;SDS011;6053;51.382;6.768;2022-08-01T09:58:48;1.10;;;0.70;;
11986;SDS011;6053;51.382;6.768;2022-08-01T10:01:25;0.77;;;0.40;;
11986;SDS011;6053;51.382;6.768;2022-08-01T10:04:07;0.40;;;0.40;;
11986;SDS011;6053;51.382;6.768;2022-08-01T10:06:39;0.30;;;0.30;;
11986;SDS011;6053;51.382;6.768;2022-08-01T10:09:11;0.30;;;0.30;;
11986;SDS011;6053;51.382;6.768;2022-08-01T10:11:41;0.60;;;0.60;;
11986;SDS011;6053;51.382;6.768;2022-08-01T10:14:10;0.80;;;0.45;;
11986;SDS011;6053;51.382;6.768;2022-08-01T10:16:43;0.50;;;0.50;;
11986;SDS011;6053;51.382;6.768;2022-08-01T10:19:21;0.32;;;0.32;;
11986;SDS011;6053;51.382;6.768;2022-08-01T10:21:56;0.40;;;0.40;;
11986;SDS011;6053;51.382;6.768;2022-08-01T10:24:27;0.50;;;0.50;;
11986;SDS011;6053;51.382;6.768;2022-08-01T10:27:00;0.60;;;0.40;;
11986;SDS011;6053;51.382;6.768;2022-08-01T10:29:36;0.40;;;0.40;;
11986;SDS011;6053;51.382;6.768;2022-08-01T10:32:30;0.40;;;0.40;;
11986;SDS011;6053;51.382;6.768;2022-08-01T10:35:00;0.40;;;0.40;;
11986;SDS011;6053;51.382;6.768;2022-08-01T10:37:34;0.47;;;0.47;;
11986;SDS011;6053;51.382;6.768;2022-08-01T10:40:18;0.63;;;0.63;;
11986;SDS011;6053;51.382;6.768;2022-08-01T10:42:57;0.53;;;0.53;;
11986;SDS011;6053;51.382;6.768;2022-08-01T10:45:26;0.60;;;0.30;;
11986;SDS011;6053;51.382;6.768;2022-08-01T10:47:59;0.93;;;0.50;;
11986;SDS011;6053;51.382;6.768;2022-08-01T10:50:32;0.60;;;0.47;;
11986;SDS011;6053;51.382;6.768;2022-08-01T10:53:08;0.52;;;0.52;;
11986;SDS011;6053;51.382;6.768;2022-08-01T10:55:45;0.30;;;0.30;;
11986;SDS011;6053;51.382;6.768;2022-08-01T10:58:20;0.40;;;0.40;;
11986;SDS011;6053;51.382;6.768;2022-08-01T11:03:41;0.50;;;0.50;;
11986;SDS011;6053;51.382;6.768;2022-08-01T11:06:25;0.30;;;0.30;;
11986;SDS011;6053;51.382;6.768;2022-08-01T11:09:04;0.40;;;0.40;;
11986;SDS011;6053;51.382;6.768;2022-08-01T11:11:56;0.38;;;0.38;;
11986;SDS011;6053;51.382;6.768;2022-08-01T11:14:31;0.45;;;0.45;;
11986;SDS011;6053;51.382;6.768;2022-08-01T11:17:30;0.50;;;0.40;;
11986;SDS011;6053;51.382;6.768;2022-08-01T11:20:04;0.30;;;0.30;;
11986;SDS011;6053;51.382;6.768;2022-08-01T11:28:36;0.40;;;0.40;;
11986;SDS011;6053;51.382;6.768;2022-08-01T11:31:25;0.40;;;0.40;;
11986;SDS011;6053;51.382;6.768;2022-08-01T11:34:03;0.40;;;0.40;;
11986;SDS011;6053;51.382;6.768;2022-08-01T11:36:32;0.50;;;0.50;;
11986;SDS011;6053;51.382;6.768;2022-08-01T11:39:21;0.30;;;0.30;;
11986;SDS011;6053;51.382;6.768;2022-08-01T11:41:51;0.50;;;0.30;;
11986;SDS011;6053;51.382;6.768;2022-08-01T11:44:21;0.40;;;0.20;;
11986;SDS011;6053;51.382;6.768;2022-08-01T11:46:59;0.30;;;0.30;;
11986;SDS011;6053;51.382;6.768;2022-08-01T11:49:45;0.30;;;0.30;;
11986;SDS011;6053;51.382;6.768;2022-08-01T11:52:17;0.40;;;0.40;;
11986;SDS011;6053;51.382;6.768;2022-08-01T11:54:51;0.27;;;0.27;;
11986;SDS011;6053;51.382;6.768;2022-08-01T11:57:24;0.40;;;0.30;;
11986;SDS011;6053;51.382;6.768;2022-08-01T12:00:00;0.22;;;0.22;;
11986;SDS011;6053;51.382;6.768;2022-08-01T12:02:34;0.10;;;0.10;;
11986;SDS011;6053;51.382;6.768;2022-08-01T12:05:04;0.35;;;0.35;;
11986;SDS011;6053;51.382;6.768;2022-08-01T12:07:37;1.00;;;0.20;;
11986;SDS011;6053;51.382;6.768;2022-08-01T12:10:08;0.50;;;0.50;;
11986;SDS011;6053;51.382;6.768;2022-08-01T12:12:42;0.20;;;0.20;;
11986;SDS011;6053;51.382;6.768;2022-08-01T12:15:12;0.30;;;0.30;;
11986;SDS011;6053;51.382;6.768;2022-08-01T12:17:41;0.45;;;0.30;;
11986;SDS011;6053;51.382;6.768;2022-08-01T12:20:26;0.30;;;0.30;;
11986;SDS011;6053;51.382;6.768;2022-08-01T12:22:58;0.30;;;0.30;;
11986;SDS011;6053;51.382;6.768;2022-08-01T12:25:28;1.27;;;0.30;;
11986;SDS011;6053;51.382;6.768;2022-08-01T12:28:00;0.30;;;0.30;;
11986;SDS011;6053;51.382;6.768;2022-08-01T12:30:30;0.22;;;0.22;;
11986;SDS011;6053;51.382;6.768;2022-08-01T12:33:02;0.50;;;0.50;;
11986;SDS011;6053;51.382;6.768;2022-08-01T12:35:32;0.30;;;0.30;;
11986;SDS011;6053;51.382;6.768;2022-08-01T12:38:03;0.30;;;0.30;;
11986;SDS011;6053;51.382;6.768;2022-08-01T12:40:35;0.38;;;0.38;;
11986;SDS011;6053;51.382;6.768;2022-08-01T12:43:15;0.35;;;0.35;;
11986;SDS011;6053;51.382;6.768;2022-08-01T12:45:54;0.40;;;0.40;;
11986;SDS011;6053;51.382;6.768;2022-08-01T12:48:25;0.30;;;0.30;;
11986;SDS011;6053;51.382;6.768;2022-08-01T12:50:55;0.20;;;0.20;;
11986;SDS011;6053;51.382;6.768;2022-08-01T12:53:27;0.35;;;0.30;;
11986;SDS011;6053;51.382;6.768;2022-08-01T12:56:06;0.40;;;0.40;;
11986;SDS011;6053;51.382;6.768;2022-08-01T12:58:38;0.17;;;0.17;;
11986;SDS011;6053;51.382;6.768;2022-08-01T13:01:07;0.30;;;0.30;;
11986;SDS011;6053;51.382;6.768;2022-08-01T13:03:38;0.10;;;0.10;;
11986;SDS011;6053;51.382;6.768;2022-08-01T13:06:10;0.70;;;0.50;;
11986;SDS011;6053;51.382;6.768;2022-08-01T13:08:42;0.30;;;0.30;;
11986;SDS011;6053;51.382;6.768;2022-08-01T13:11:12;0.70;;;0.40;;
11986;SDS011;6053;51.382;6.768;2022-08-01T13:13:45;0.90;;;0.30;;
11986;SDS011;6053;51.382;6.768;2022-08-01T13:16:16;0.73;;;0.20;;
11986;SDS011;6053;51.382;6.768;2022-08-01T13:19:03;0.90;;;0.43;;
11986;SDS011;6053;51.382;6.768;2022-08-01T13:21:33;1.45;;;0.52;;
11986;SDS011;6053;51.382;6.768;2022-08-01T13:24:23;0.40;;;0.30;;
11986;SDS011;6053;51.382;6.768;2022-08-01T13:26:53;1.10;;;0.40;;
11986;SDS011;6053;51.382;6.768;2022-08-01T13:29:31;0.20;;;0.20;;
11986;SDS011;6053;51.382;6.768;2022-08-01T13:32:13;0.38;;;0.22;;
11986;SDS011;6053;51.382;6.768;2022-08-01T13:35:00;0.70;;;0.50;;
11986;SDS011;6053;51.382;6.768;2022-08-01T13:37:30;0.28;;;0.28;;
11986;SDS011;6053;51.382;6.768;2022-08-01T13:39:58;2.00;;;0.40;;
11986;SDS011;6053;51.382;6.768;2022-08-01T13:42:27;0.30;;;0.30;;
11986;SDS011;6053;51.382;6.768;2022-08-01T13:44:57;0.30;;;0.30;;
11986;SDS011;6053;51.382;6.768;2022-08-01T13:47:28;0.70;;;0.40;;
11986;SDS011;6053;51.382;6.768;2022-08-01T13:49:58;1.27;;;0.70;;
11986;SDS011;6053;51.382;6.768;2022-08-01T13:52:29;0.93;;;0.40;;
11986;SDS011;6053;51.382;6.768;2022-08-01T13:54:58;0.88;;;0.38;;
11986;SDS011;6053;51.382;6.768;2022-08-01T13:57:27;0.90;;;0.50;;
11986;SDS011;6053;51.382;6.768;2022-08-01T14:00:04;0.40;;;0.40;;
11986;SDS011;6053;51.382;6.768;2022-08-01T14:02:35;0.47;;;0.45;;
11986;SDS011;6053;51.382;6.768;2022-08-01T14:05:04;0.67;;;0.43;;
11986;SDS011;6053;51.382;6.768;2022-08-01T14:07:33;0.82;;;0.65;;
11986;SDS011;6053;51.382;6.768;2022-08-01T14:10:04;0.88;;;0.60;;
11986;SDS011;6053;51.382;6.768;2022-08-01T14:12:45;1.73;;;0.90;;
11986;SDS011;6053;51.382;6.768;2022-08-01T14:15:16;1.40;;;0.50;;
11986;SDS011;6053;51.382;6.768;2022-08-01T14:18:04;0.43;;;0.43;;
11986;SDS011;6053;51.382;6.768;2022-08-01T14:20:35;0.60;;;0.40;;
11986;SDS011;6053;51.382;6.768;2022-08-01T14:23:04;0.30;;;0.30;;
11986;SDS011;6053;51.382;6.768;2022-08-01T14:25:34;0.30;;;0.30;;
11986;SDS011;6053;51.382;6.768;2022-08-01T14:28:23;0.93;;;0.80;;
11986;SDS011;6053;51.382;6.768;2022-08-01T14:30:55;0.77;;;0.50;;
11986;SDS011;6053;51.382;6.768;2022-08-01T14:33:25;1.52;;;0.70;;
11986;SDS011;6053;51.382;6.768;2022-08-01T14:35:54;1.70;;;0.93;;
11986;SDS011;6053;51.382;6.768;2022-08-01T14:38:43;0.70;;;0.70;;
11986;SDS011;6053;51.382;6.768;2022-08-01T14:41:12;1.17;;;0.68;;
11986;SDS011;6053;51.382;6.768;2022-08-01T14:43:41;0.90;;;0.70;;
11986;SDS011;6053;51.382;6.768;2022-08-01T14:46:11;0.50;;;0.38;;
11986;SDS011;6053;51.382;6.768;2022-08-01T14:48:40;0.98;;;0.60;;
11986;SDS011;6053;51.382;6.768;2022-08-01T14:51:09;0.88;;;0.57;;
11986;SDS011;6053;51.382;6.768;2022-08-01T14:53:37;1.20;;;0.50;;
11986;SDS011;6053;51.382;6.768;2022-08-01T14:56:15;0.60;;;0.40;;
11986;SDS011;6053;51.382;6.768;2022-08-01T14:58:44;0.57;;;0.20;;
11986;SDS011;6053;51.382;6.768;2022-08-01T15:01:15;0.98;;;0.50;;
11986;SDS011;6053;51.382;6.768;2022-08-01T15:03:44;0.33;;;0.20;;
11986;SDS011;6053;51.382;6.768;2022-08-01T15:06:14;1.08;;;0.47;;
11986;SDS011;6053;51.382;6.768;2022-08-01T15:08:43;1.10;;;0.57;;
11986;SDS011;6053;51.382;6.768;2022-08-01T15:11:11;0.80;;;0.43;;
11986;SDS011;6053;51.382;6.768;2022-08-01T15:13:40;0.90;;;0.60;;
11986;SDS011;6053;51.382;6.768;2022-08-01T15:16:09;1.93;;;0.77;;
11986;SDS011;6053;51.382;6.768;2022-08-01T15:18:39;1.30;;;0.50;;
11986;SDS011;6053;51.382;6.768;2022-08-01T15:21:08;0.50;;;0.40;;
11986;SDS011;6053;51.382;6.768;2022-08-01T15:23:57;0.20;;;0.20;;
11986;SDS011;6053;51.382;6.768;2022-08-01T15:26:25;0.50;;;0.50;;
11986;SDS011;6053;51.382;6.768;2022-08-01T15:28:55;0.43;;;0.30;;
11986;SDS011;6053;51.382;6.768;2022-08-01T15:31:24;0.30;;;0.30;;
11986;SDS011;6053;51.382;6.768;2022-08-01T15:33:54;0.47;;;0.35;;
11986;SDS011;6053;51.382;6.768;2022-08-01T15:36:27;0.70;;;0.30;;
11986;SDS011;6053;51.382;6.768;2022-08-01T15:38:57;0.82;;;0.55;;
11986;SDS011;6053;51.382;6.768;2022-08-01T15:41:25;0.67;;;0.40;;
11986;SDS011;6053;51.382;6.768;2022-08-01T15:43:54;0.60;;;0.30;;